createdAt,value
2023-03-20T00:02:05.729Z,0
2023-03-20T00:07:07.188Z,0
2023-03-20T00:12:08.762Z,0
2023-03-20T00:17:10.292Z,0
2023-03-20T00:22:11.736Z,0
2023-03-20T00:27:13.254Z,0
2023-03-20T00:32:14.755Z,0
2023-03-20T00:37:16.219Z,0
2023-03-20T00:42:17.691Z,0
2023-03-20T00:47:19.388Z,0
2023-03-20T00:52:20.875Z,0
2023-03-20T00:57:22.388Z,0
2023-03-20T01:02:24.117Z,0
2023-03-20T01:07:25.636Z,0
2023-03-20T01:12:27.354Z,0
2023-03-20T01:17:29.121Z,0
2023-03-20T01:22:30.673Z,0
2023-03-20T01:27:32.288Z,0.88715
2023-03-20T01:32:34.004Z,0
2023-03-20T01:37:35.529Z,0
2023-03-20T01:42:36.984Z,0
2023-03-20T01:47:38.805Z,0
2023-03-20T01:52:40.400Z,0
2023-03-20T01:57:41.923Z,0
2023-03-20T02:02:43.454Z,0
2023-03-20T02:07:44.973Z,0
2023-03-20T02:12:46.452Z,0
2023-03-20T02:17:48.180Z,0
2023-03-20T02:22:49.674Z,0
2023-03-20T02:27:51.394Z,0
2023-03-20T02:32:53.011Z,0.88715
2023-03-20T02:37:54.667Z,0
2023-03-20T02:42:56.234Z,0
2023-03-20T02:47:57.816Z,0
2023-03-20T02:52:59.316Z,0
2023-03-20T02:58:00.901Z,0
2023-03-20T03:03:02.551Z,0
2023-03-20T03:08:04.221Z,0
2023-03-20T03:13:05.748Z,0
2023-03-20T03:18:07.313Z,0
2023-03-20T03:23:08.839Z,0
2023-03-20T03:28:10.321Z,0
2023-03-20T03:33:12.028Z,0.88715
2023-03-20T03:38:13.637Z,0.88715
2023-03-20T03:43:15.218Z,0.88715
2023-03-20T03:48:16.917Z,0.88715
2023-03-20T03:53:18.469Z,1.16185
2023-03-20T03:58:19.991Z,0.8296
2023-03-20T04:03:21.811Z,2.01475
2023-03-20T04:08:23.305Z,7.7089
2023-03-20T04:13:24.862Z,10.58595
2023-03-20T04:18:26.469Z,27.2759
2023-03-20T04:23:28.061Z,38.2859
2023-03-20T04:28:29.606Z,57.9822
2023-03-20T04:33:31.149Z,73.4
2023-03-20T04:38:32.615Z,86.6234
2023-03-20T04:43:34.820Z,108.2745
2023-03-20T04:48:36.351Z,123.7303
2023-03-20T04:53:37.784Z,152.07675
2023-03-20T04:58:39.217Z,186.1926
2023-03-20T05:03:40.840Z,212.67555
2023-03-20T05:08:42.254Z,239.767
2023-03-20T05:13:43.704Z,257.93255
2023-03-20T05:18:45.204Z,277.0755
2023-03-20T05:23:46.754Z,302.94995
2023-03-20T05:28:48.319Z,324.50975
2023-03-20T05:33:49.864Z,366.3382
2023-03-20T05:38:51.338Z,379.7099
2023-03-20T05:43:52.767Z,392.76785
2023-03-20T05:48:54.277Z,412.9072
2023-03-20T05:53:55.716Z,426.44435
2023-03-20T05:58:57.264Z,442.12075
2023-03-20T06:03:59.085Z,445.57015
2023-03-20T06:09:00.711Z,461.5603
2023-03-20T06:14:02.566Z,471.18785
2023-03-20T06:19:03.974Z,488.33985
2023-03-20T06:24:05.471Z,500.47555
2023-03-20T06:29:06.978Z,519.7668
2023-03-20T06:34:08.580Z,526.1674
2023-03-20T06:39:10.130Z,505.91775
2023-03-20T06:44:11.700Z,472.78535
2023-03-20T06:49:13.285Z,456.6506
2023-03-20T06:54:14.960Z,433.41915
2023-03-20T06:59:16.402Z,486.50285
2023-03-20T07:04:17.876Z,540.24925
2023-03-20T07:09:20.483Z,594.4105
2023-03-20T07:14:22.007Z,584.94995
2023-03-20T07:19:23.604Z,541.7636
2023-03-20T07:24:25.127Z,592.1435
2023-03-20T07:29:26.918Z,644.3753
2023-03-20T07:34:28.573Z,670.89625
2023-03-20T07:39:29.995Z,677.14855
2023-03-20T07:44:31.520Z,676.17115
2023-03-20T07:49:33.046Z,711.74965
2023-03-20T07:54:34.733Z,661.51065
2023-03-20T07:59:36.233Z,686.55585
2023-03-20T08:04:37.735Z,743.8073
2023-03-20T08:09:39.370Z,713.025
2023-03-20T08:14:40.906Z,760.20435
2023-03-20T08:19:42.582Z,765.36895
2023-03-20T08:24:44.067Z,813.6893
2023-03-20T08:29:45.834Z,787.2615
2023-03-20T08:34:47.332Z,761.4232
2023-03-20T08:39:48.824Z,795.2337
2023-03-20T08:44:50.548Z,798.7301
2023-03-20T08:49:52.083Z,837.67435
2023-03-20T08:54:53.498Z,799.38105
2023-03-20T08:59:54.969Z,829.31525
2023-03-20T09:04:56.743Z,847.26015
2023-03-20T09:09:58.268Z,642.4247
2023-03-20T09:15:00.076Z,831.2618
2023-03-20T09:20:01.826Z,775.6208
2023-03-20T09:25:03.256Z,630.96745
2023-03-20T09:30:04.677Z,596.87665
2023-03-20T09:35:06.168Z,666.40505
2023-03-20T09:40:07.673Z,681.96745
2023-03-20T09:45:09.383Z,817.07295
2023-03-20T09:50:11.174Z,1194.9835
2023-03-20T09:55:12.754Z,1158.8371
2023-03-20T10:00:14.861Z,1139.9499
2023-03-20T10:05:16.405Z,1139.4327
2023-03-20T10:10:17.933Z,1199.66445
2023-03-20T10:15:19.502Z,1144.6506
2023-03-20T10:20:21.094Z,1169.9907
2023-03-20T10:25:22.936Z,1224.17545
2023-03-20T10:30:24.478Z,1296.98595
2023-03-20T10:35:25.978Z,1330.3487
2023-03-20T10:40:27.491Z,1322.6398
2023-03-20T10:45:28.988Z,1331.51055
2023-03-20T10:50:30.512Z,1411.42145
2023-03-20T10:55:31.989Z,1425.6774
2023-03-20T11:00:33.593Z,1487.05385
2023-03-20T11:05:35.239Z,1523.4401
2023-03-20T11:10:37.088Z,1571.6863
2023-03-20T11:15:39.035Z,1619.01025
2023-03-20T11:20:40.551Z,1618.40175
2023-03-20T11:25:42.314Z,1591.9758
2023-03-20T11:31:01.408Z,1724.35255
2023-03-20T11:36:05.346Z,1628.28605
2023-03-20T11:41:06.839Z,1606.76425
2023-03-20T11:46:08.421Z,1681.4934
2023-03-20T11:51:09.913Z,1699.5468
2023-03-20T11:56:11.380Z,1745.264
2023-03-20T12:01:12.893Z,1818.2228
2023-03-20T12:06:14.347Z,1556.972
2023-03-20T12:11:17.249Z,1214.5679
2023-03-20T12:16:18.811Z,994.9273
2023-03-20T12:21:20.364Z,1531.1564
2023-03-20T12:26:21.986Z,1638.02575
2023-03-20T12:31:23.645Z,1785.0102
2023-03-20T12:36:25.339Z,1011.46525
2023-03-20T12:41:26.989Z,910.82735
2023-03-20T12:46:28.499Z,1493.1027
2023-03-20T12:51:30.047Z,1507.7257
2023-03-20T12:56:31.563Z,765.56365
2023-03-20T13:01:33.046Z,545.8563
2023-03-20T13:06:34.644Z,617.5221
2023-03-20T13:11:36.164Z,1336.9208
2023-03-20T13:16:37.747Z,1589.58585
2023-03-20T13:21:39.525Z,1742.25025
2023-03-20T13:26:41.058Z,1680.7751
2023-03-20T13:31:43.142Z,1544.38265
2023-03-20T13:36:49.402Z,1550.65765
2023-03-20T13:41:50.861Z,1615.79725
2023-03-20T13:46:52.475Z,1562.99495
2023-03-20T13:51:54.043Z,1505.93315
2023-03-20T13:56:55.607Z,1463.44105
2023-03-20T14:01:57.137Z,1374.0509
2023-03-20T14:06:58.668Z,1362.7633
2023-03-20T14:12:00.173Z,1390.94245
2023-03-20T14:17:01.659Z,1348.57965
2023-03-20T14:22:03.161Z,1207.5509
2023-03-20T14:27:04.606Z,1208.45415
2023-03-20T14:32:06.179Z,1209.54185
2023-03-20T14:37:07.655Z,1046.34665
2023-03-20T14:42:09.290Z,1045.23995
2023-03-20T14:47:10.823Z,982.57235
2023-03-20T14:52:12.590Z,934.1797
2023-03-20T14:57:14.137Z,837.33925
2023-03-20T15:02:15.634Z,762.20505
2023-03-20T15:07:17.207Z,740.90385
2023-03-20T15:12:18.678Z,632.97925
2023-03-20T15:17:20.191Z,508.8059
2023-03-20T15:22:21.687Z,424.65265
2023-03-20T15:27:23.201Z,369.6473
2023-03-20T15:32:24.759Z,308.90835
2023-03-20T15:37:26.295Z,253.6212
2023-03-20T15:42:27.907Z,193.29725
2023-03-20T15:47:29.376Z,158.15765
2023-03-20T15:52:30.902Z,120.70715
2023-03-20T15:57:35.234Z,100.1814
2023-03-20T16:02:37.091Z,76.4082
2023-03-20T16:07:38.577Z,43.52465
2023-03-20T16:12:40.045Z,27.84825
2023-03-20T16:17:41.524Z,13.16825
2023-03-20T16:22:42.990Z,6.67635
2023-03-20T16:27:44.514Z,7.7089
2023-03-20T16:32:46.001Z,1.2444
2023-03-20T16:37:47.467Z,1.16185
2023-03-20T16:42:49.019Z,0.88715
2023-03-20T16:47:50.695Z,0.88715
2023-03-20T16:52:52.277Z,0.88715
2023-03-20T16:57:53.737Z,0
2023-03-20T17:02:55.222Z,0
2023-03-20T17:07:56.747Z,0
2023-03-20T17:12:58.500Z,0
2023-03-20T17:18:00.004Z,0.88715
2023-03-20T17:23:03.843Z,0.88715
2023-03-20T17:28:06.541Z,0
2023-03-20T17:33:08.103Z,0
2023-03-20T17:38:09.587Z,0
2023-03-20T17:43:11.059Z,0
2023-03-20T17:48:12.594Z,0
2023-03-20T17:53:14.052Z,0.88715
2023-03-20T17:58:15.520Z,0
2023-03-20T18:03:16.999Z,0
2023-03-20T18:08:18.447Z,0
2023-03-20T18:13:19.986Z,0
2023-03-20T18:18:23.723Z,0.88715
2023-03-20T18:23:25.531Z,0
2023-03-20T18:28:27.038Z,0
2023-03-20T18:33:28.449Z,0
2023-03-20T18:38:29.884Z,0.88715
2023-03-20T18:43:31.408Z,0
2023-03-20T18:48:32.930Z,0.88715
2023-03-20T18:53:34.416Z,0.88715
2023-03-20T18:58:36.030Z,0
2023-03-20T19:03:37.617Z,0
2023-03-20T19:08:39.242Z,0
2023-03-20T19:13:40.717Z,0
2023-03-20T19:18:42.408Z,0
2023-03-20T19:23:43.883Z,0
2023-03-20T19:28:45.642Z,0.88715
2023-03-20T19:33:47.141Z,0
2023-03-20T19:38:48.676Z,0.88715
2023-03-20T19:43:53.603Z,0
2023-03-20T19:48:57.784Z,0
2023-03-20T19:53:59.460Z,0
2023-03-20T19:59:00.949Z,0
2023-03-20T20:04:02.507Z,0.88715
2023-03-20T20:09:04.053Z,0
2023-03-20T20:14:08.698Z,0
2023-03-20T20:19:10.913Z,0.88715
2023-03-20T20:24:12.442Z,0
2023-03-20T20:29:13.908Z,0
2023-03-20T20:35:21.967Z,0
2023-03-20T20:40:36.337Z,0
2023-03-20T20:45:38.111Z,0
2023-03-20T20:50:39.685Z,0
2023-03-20T20:55:41.701Z,0
2023-03-20T21:00:51.178Z,0
2023-03-20T21:05:53.311Z,0
2023-03-20T21:10:54.974Z,0
2023-03-20T21:15:56.439Z,0
2023-03-20T21:20:57.981Z,0
2023-03-20T21:25:59.463Z,0
2023-03-20T21:31:25.873Z,0
2023-03-20T21:36:29.122Z,0
2023-03-20T21:41:31.359Z,0
2023-03-20T21:47:20.068Z,0
2023-03-20T21:53:24.709Z,0
2023-03-20T21:59:24.078Z,0
2023-03-20T22:05:34.843Z,0
2023-03-20T22:11:38.563Z,0
2023-03-20T22:17:45.679Z,0
2023-03-20T22:23:29.297Z,0
2023-03-20T22:29:44.082Z,0
2023-03-20T22:35:47.147Z,0
2023-03-20T22:46:45.705Z,0
2023-03-20T22:52:07.814Z,0
2023-03-20T22:57:16.649Z,0
2023-03-20T23:02:18.137Z,0
2023-03-20T23:07:19.652Z,0
2023-03-20T23:12:21.212Z,0
2023-03-20T23:17:23.732Z,0
2023-03-20T23:22:25.219Z,0
2023-03-20T23:27:26.628Z,0
2023-03-20T23:32:28.142Z,0
2023-03-20T23:37:29.778Z,0
2023-03-20T23:42:31.413Z,0
2023-03-20T23:47:44.041Z,0
2023-03-20T23:52:55.900Z,0
2023-03-20T23:58:02.677Z,0.88715
